Trenton, Indiana
Current Conditions -  °F | °C
As of 3:53 AM on Thursday 27 Nov 2014 (Local Time) from KMIE Reporting Station
Overcast Overcast  
Wind Chill: 19°   Ceiling: 2700
Heat Index: 28°   Visibility: 8mi
Dew Point: 22°   Wind: 10mph
Humidity: 78%   Direction: 330°NNW
Pressure: 30.13"   Gusts: NA
Location:  40.4568°N, 85.3505°W
Report Text: KMIE 270853Z AUTO 33009KT 8SM OVC027 M02/M06 A3013 RMK AO2 SLP210 T10221056 53012
Loading
Personal Weather Stations






























Interactive Weather Map New forecast layout! Learn more

10-Day Weather Forecast

Advertisements
Track Severe Weather on mobile